createdAt,value
2023-09-17T00:01:06.621Z,2.8
2023-09-17T00:02:15.347Z,2.9
2023-09-17T00:03:24.983Z,2.6
2023-09-17T00:04:33.636Z,3.3
2023-09-17T00:05:42.309Z,1.3
2023-09-17T00:06:51.018Z,3.3
2023-09-17T00:07:58.704Z,2.2
2023-09-17T00:09:08.397Z,3.2
2023-09-17T00:10:17.149Z,4.5
2023-09-17T00:11:25.851Z,1.7
2023-09-17T00:12:35.624Z,1.7
2023-09-17T00:13:46.226Z,2.1
2023-09-17T00:14:55.885Z,2.7
2023-09-17T00:16:04.548Z,2.4
2023-09-17T00:17:13.284Z,3.2
2023-09-17T00:18:22.948Z,1.7
2023-09-17T00:19:32.623Z,2.8
2023-09-17T00:20:41.291Z,3.1
2023-09-17T00:21:50.958Z,3
2023-09-17T00:22:59.674Z,2.3
2023-09-17T00:24:08.353Z,2.3
2023-09-17T00:25:18.105Z,1.9
2023-09-17T00:26:26.730Z,2.2
2023-09-17T00:27:36.411Z,3.8
2023-09-17T00:28:46.155Z,2.2
2023-09-17T00:29:53.746Z,2.4
2023-09-17T00:31:02.477Z,1.9
2023-09-17T00:32:12.136Z,2.3
2023-09-17T00:33:20.859Z,3.1
2023-09-17T00:34:29.576Z,2.7
2023-09-17T00:35:38.223Z,1.9
2023-09-17T00:36:47.887Z,3.2
2023-09-17T00:37:56.552Z,2.3
2023-09-17T00:39:06.282Z,1.9
2023-09-17T00:40:16.005Z,2.8
2023-09-17T00:41:24.633Z,2.1
2023-09-17T00:42:34.301Z,2
2023-09-17T00:43:42.994Z,3.3
2023-09-17T00:44:51.773Z,1.7
2023-09-17T00:46:01.448Z,1.7
2023-09-17T00:47:11.164Z,2.2
2023-09-17T00:48:18.828Z,2.4
2023-09-17T00:49:28.539Z,1.9
2023-09-17T00:50:40.468Z,1.4
2023-09-17T00:51:47.894Z,1.3
2023-09-17T00:52:56.580Z,2.9
2023-09-17T00:54:03.263Z,2.4
2023-09-17T00:55:13.001Z,2.2
2023-09-17T00:56:22.636Z,2
2023-09-17T00:57:30.298Z,4.1
2023-09-17T00:58:40.037Z,4.6
2023-09-17T00:59:48.700Z,1.3
2023-09-17T01:00:57.479Z,2
2023-09-17T01:02:07.168Z,3.3
2023-09-17T01:03:14.849Z,2.4
2023-09-17T01:04:24.561Z,4.3
2023-09-17T01:05:33.206Z,3.1
2023-09-17T01:06:41.938Z,2.4
2023-09-17T01:07:51.688Z,2
2023-09-17T01:09:01.327Z,2.9
2023-09-17T01:10:11.556Z,2.9
2023-09-17T01:11:21.221Z,2.4
2023-09-17T01:12:29.897Z,3.1
2023-09-17T01:13:38.696Z,2.8
2023-09-17T01:14:47.307Z,1.8
2023-09-17T01:15:56.974Z,2
2023-09-17T01:17:06.704Z,2.3
2023-09-17T01:18:14.518Z,2.6
2023-09-17T01:19:24.227Z,2.1
2023-09-17T01:20:33.879Z,3
2023-09-17T01:21:43.547Z,1.6
2023-09-17T01:22:52.353Z,1.1
2023-09-17T01:24:01.003Z,2.6
2023-09-17T01:25:10.666Z,1.9
2023-09-17T01:26:19.347Z,2.2
2023-09-17T01:27:28.075Z,2.5
2023-09-17T01:28:36.792Z,3
2023-09-17T01:29:46.546Z,2
2023-09-17T01:30:56.260Z,2.3
2023-09-17T01:32:05.932Z,1.1
2023-09-17T01:33:14.691Z,2.2
2023-09-17T01:34:24.386Z,2.2
2023-09-17T01:35:33.233Z,2
2023-09-17T01:36:40.937Z,1.3
2023-09-17T01:37:50.610Z,2.4
2023-09-17T01:39:00.318Z,1.5
2023-09-17T01:40:09.983Z,1
2023-09-17T01:41:18.689Z,1.3
2023-09-17T01:42:28.388Z,1.9
2023-09-17T01:43:38.078Z,2.2
2023-09-17T01:44:47.734Z,1.5
2023-09-17T01:45:55.430Z,1.6
2023-09-17T01:47:05.098Z,1.6
2023-09-17T01:48:13.760Z,2.7
2023-09-17T01:49:23.530Z,1.5
2023-09-17T01:50:33.081Z,2.5
2023-09-17T01:51:42.750Z,2.5
2023-09-17T01:52:52.436Z,1.3
2023-09-17T01:54:01.153Z,1.3
2023-09-17T01:55:10.851Z,1.5
2023-09-17T01:56:20.503Z,1.7
2023-09-17T01:57:29.200Z,1.8
2023-09-17T01:58:37.909Z,1.2
2023-09-17T01:59:46.546Z,1.6
2023-09-17T02:00:55.270Z,1.8
2023-09-17T02:02:05.031Z,1.8
2023-09-17T02:03:14.840Z,1.7
2023-09-17T02:04:24.418Z,2
2023-09-17T02:05:34.135Z,1.4
2023-09-17T02:06:42.757Z,2
2023-09-17T02:07:52.504Z,1
2023-09-17T02:09:01.382Z,1.5
2023-09-17T02:10:11.049Z,2
2023-09-17T02:11:20.838Z,1.9
2023-09-17T02:12:29.560Z,3.2
2023-09-17T02:13:37.262Z,3.9
2023-09-17T02:14:46.924Z,3.6
2023-09-17T02:15:56.659Z,1.6
2023-09-17T02:17:05.368Z,2.4
2023-09-17T02:18:15.059Z,1.8
2023-09-17T02:19:22.824Z,1.6
2023-09-17T02:20:32.497Z,2.8
2023-09-17T02:21:41.245Z,0.9
2023-09-17T02:22:48.911Z,2.4
2023-09-17T02:23:58.563Z,1.2
2023-09-17T02:25:08.272Z,1.3
2023-09-17T02:26:17.960Z,1.1
2023-09-17T02:27:26.617Z,1
2023-09-17T02:28:35.303Z,1.7
2023-09-17T02:29:44.987Z,1.5
2023-09-17T02:30:54.642Z,1.9
2023-09-17T02:32:02.374Z,0.8
2023-09-17T02:33:12.006Z,1
2023-09-17T02:34:21.662Z,1.7
2023-09-17T02:35:31.359Z,1.6
2023-09-17T02:36:41.040Z,1
2023-09-17T02:37:49.784Z,2.7
2023-09-17T02:38:59.405Z,1.1
2023-09-17T02:40:09.163Z,1.5
2023-09-17T02:41:18.859Z,1.5
2023-09-17T02:42:28.524Z,1.5
2023-09-17T02:43:37.258Z,0.7
2023-09-17T02:44:45.854Z,1.1
2023-09-17T02:45:54.556Z,1.3
2023-09-17T02:47:02.272Z,1.2
2023-09-17T02:48:11.911Z,1.1
2023-09-17T02:49:21.600Z,1.7
2023-09-17T02:50:30.343Z,1.5
2023-09-17T02:51:40.006Z,1.3
2023-09-17T02:52:49.708Z,1.3
2023-09-17T02:53:58.368Z,1.4
2023-09-17T02:55:08.018Z,2
2023-09-17T02:56:16.691Z,2.2
2023-09-17T02:57:26.370Z,2.1
2023-09-17T02:58:36.104Z,2.2
2023-09-17T02:59:43.728Z,1.9
2023-09-17T03:00:52.449Z,1.2
2023-09-17T03:02:01.116Z,1.1
2023-09-17T03:03:09.809Z,1.7
2023-09-17T03:04:19.452Z,2.3
2023-09-17T03:05:28.095Z,1.5
2023-09-17T03:06:36.772Z,2.7
2023-09-17T03:07:44.517Z,1.4
2023-09-17T03:08:54.189Z,1.7
2023-09-17T03:10:03.899Z,1.5
2023-09-17T03:11:12.540Z,1.3
2023-09-17T03:12:22.203Z,2
2023-09-17T03:13:31.907Z,0.8
2023-09-17T03:14:40.564Z,1.8
2023-09-17T03:15:50.249Z,1.9
2023-09-17T03:16:57.977Z,1.6
2023-09-17T03:18:06.853Z,2.2
2023-09-17T03:19:15.492Z,2.3
2023-09-17T03:20:24.202Z,1.4
2023-09-17T03:21:33.863Z,1.1
2023-09-17T03:22:43.650Z,1.3
2023-09-17T03:23:53.515Z,1.3
2023-09-17T03:25:04.678Z,0.9
2023-09-17T03:26:10.614Z,1.3
2023-09-17T03:27:20.255Z,1.1
2023-09-17T03:28:28.960Z,1.1
2023-09-17T03:29:37.598Z,1.1
2023-09-17T03:30:47.288Z,1.5
2023-09-17T03:31:55.931Z,1.1
2023-09-17T03:33:05.900Z,1.3
2023-09-17T03:34:15.301Z,0.9
2023-09-17T03:35:23.957Z,1.6
2023-09-17T03:36:33.648Z,1.1
2023-09-17T03:37:43.319Z,0.6
2023-09-17T03:38:51.973Z,2
2023-09-17T03:40:00.662Z,1.3
2023-09-17T03:41:10.320Z,1.8
2023-09-17T03:42:20.015Z,0.9
2023-09-17T03:43:29.682Z,1.6
2023-09-17T03:44:37.352Z,1.5
2023-09-17T03:45:47.022Z,2
2023-09-17T03:46:55.765Z,1.5
2023-09-17T03:48:04.457Z,1
2023-09-17T03:49:14.164Z,1.7
2023-09-17T03:50:23.935Z,1.3
2023-09-17T03:51:33.666Z,1.7
2023-09-17T03:52:43.359Z,2.4
2023-09-17T03:53:52.180Z,1.6
2023-09-17T03:55:01.689Z,1
2023-09-17T03:56:11.345Z,1.6
2023-09-17T03:57:20.025Z,2.6
2023-09-17T03:58:29.793Z,1.7
2023-09-17T03:59:38.398Z,1.2
2023-09-17T04:00:48.106Z,1.3
2023-09-17T04:01:56.860Z,1.4
2023-09-17T04:03:05.614Z,1.2
2023-09-17T04:04:15.312Z,1.1
2023-09-17T04:05:23.986Z,1.6
2023-09-17T04:06:32.635Z,1.1
2023-09-17T04:07:42.294Z,1.1
2023-09-17T04:08:50.949Z,1.2
2023-09-17T04:10:00.607Z,2.8
2023-09-17T04:11:09.337Z,1.6
2023-09-17T04:12:18.007Z,0.6
2023-09-17T04:13:27.707Z,1.6
2023-09-17T04:14:36.431Z,1
2023-09-17T04:15:45.062Z,1.7
2023-09-17T04:16:54.799Z,0.7
2023-09-17T04:18:04.440Z,1.3
2023-09-17T04:19:13.123Z,2.4
2023-09-17T04:20:22.800Z,2
2023-09-17T04:21:31.466Z,1.4
2023-09-17T04:22:41.162Z,1.2
2023-09-17T04:23:50.028Z,2.2
2023-09-17T04:24:59.516Z,0.5
2023-09-17T04:26:09.237Z,1.2
2023-09-17T04:27:16.920Z,1.6
2023-09-17T04:28:26.648Z,1.8
2023-09-17T04:29:35.268Z,1
2023-09-17T04:30:43.016Z,1.1
2023-09-17T04:31:52.809Z,0.7
2023-09-17T04:33:02.360Z,1.2
2023-09-17T04:34:11.005Z,2
2023-09-17T04:35:20.692Z,0.9
2023-09-17T04:36:30.366Z,0.7
2023-09-17T04:37:39.113Z,0.6
2023-09-17T04:38:48.700Z,1.6
2023-09-17T04:39:58.405Z,1.7
2023-09-17T04:41:08.122Z,1
2023-09-17T04:42:15.757Z,2
2023-09-17T04:43:24.540Z,1.5
2023-09-17T04:44:34.113Z,1.7
2023-09-17T04:45:43.850Z,2
2023-09-17T04:46:53.530Z,1.3
2023-09-17T04:48:03.173Z,1.1
2023-09-17T04:49:12.799Z,2.9
2023-09-17T04:50:22.474Z,1.7
2023-09-17T04:51:31.188Z,1.4
2023-09-17T04:52:40.968Z,3
2023-09-17T04:53:50.728Z,1.8
2023-09-17T04:54:59.368Z,0.9
2023-09-17T04:56:10.026Z,1.5
2023-09-17T04:57:19.762Z,1.3
2023-09-17T04:58:27.503Z,1.9
2023-09-17T04:59:37.101Z,2.1
2023-09-17T05:00:45.851Z,0.7
2023-09-17T05:01:55.556Z,1.7
2023-09-17T05:03:05.133Z,1.4
2023-09-17T05:04:13.837Z,1.4
2023-09-17T05:05:26.570Z,1.5
2023-09-17T05:06:34.165Z,0.9
2023-09-17T05:07:43.878Z,1.1
2023-09-17T05:08:52.806Z,1.7
2023-09-17T05:10:01.242Z,1.3
2023-09-17T05:11:10.888Z,1.5
2023-09-17T05:12:19.576Z,1.4
2023-09-17T05:13:27.259Z,1.3
2023-09-17T05:14:36.905Z,1.5
2023-09-17T05:15:45.576Z,1.3
2023-09-17T05:16:54.249Z,2.5
2023-09-17T05:18:02.987Z,2.9
2023-09-17T05:19:10.618Z,1.1
2023-09-17T05:20:20.280Z,0.9
2023-09-17T05:21:28.953Z,1.5
2023-09-17T05:22:37.625Z,1.1
2023-09-17T05:23:47.294Z,1.3
2023-09-17T05:24:55.945Z,1.6
2023-09-17T05:26:05.894Z,1.6
2023-09-17T05:27:14.650Z,1.6
2023-09-17T05:28:23.349Z,2.2
2023-09-17T05:29:33.015Z,1.3
2023-09-17T05:30:42.649Z,0.8
2023-09-17T05:31:51.359Z,1.1
2023-09-17T05:33:01.002Z,1.4
2023-09-17T05:34:10.720Z,1.8
2023-09-17T05:35:19.332Z,2.3
2023-09-17T05:36:27.991Z,1.1
2023-09-17T05:37:36.679Z,1
2023-09-17T05:38:46.363Z,0.9
2023-09-17T05:39:55.049Z,1.2
2023-09-17T05:41:02.738Z,1.9
2023-09-17T05:42:12.422Z,1.1
2023-09-17T05:43:21.203Z,1.5
2023-09-17T05:44:30.797Z,0.4
2023-09-17T05:45:39.494Z,0.8
2023-09-17T05:46:47.209Z,1
2023-09-17T05:47:56.864Z,1.3
2023-09-17T05:49:05.521Z,0.9
2023-09-17T05:50:15.237Z,1.3
2023-09-17T05:51:24.904Z,1.5
2023-09-17T05:52:34.588Z,0.8
2023-09-17T05:53:43.251Z,0.6
2023-09-17T05:54:52.926Z,2
2023-09-17T05:56:01.619Z,1.5
2023-09-17T05:57:11.306Z,0.6
2023-09-17T05:58:20.971Z,0.5
2023-09-17T05:59:32.370Z,0.9
2023-09-17T06:00:40.305Z,0.7
2023-09-17T06:01:48.996Z,0.5
2023-09-17T06:02:57.665Z,0.8
2023-09-17T06:04:05.376Z,0.8
2023-09-17T06:05:13.984Z,1.8
2023-09-17T06:06:23.699Z,0.5
2023-09-17T06:07:33.378Z,1.3
2023-09-17T06:08:42.003Z,0.8
2023-09-17T06:09:51.674Z,2
2023-09-17T06:11:01.364Z,1.3
2023-09-17T06:12:11.107Z,1.4
2023-09-17T06:13:19.779Z,1.2
2023-09-17T06:14:29.507Z,0.8
2023-09-17T06:15:39.133Z,0.6
2023-09-17T06:16:56.272Z,0.9
2023-09-17T06:17:56.453Z,0.6
2023-09-17T06:19:06.094Z,1.3
2023-09-17T06:20:14.777Z,1.1
2023-09-17T06:21:24.524Z,0.6
2023-09-17T06:22:34.275Z,1.3
2023-09-17T06:23:43.884Z,1.5
2023-09-17T06:24:53.588Z,0.9
2023-09-17T06:26:02.258Z,0.6
2023-09-17T06:27:09.914Z,0.8
2023-09-17T06:28:19.630Z,0.9
2023-09-17T06:29:29.351Z,0.7
2023-09-17T06:30:47.513Z,0.9
2023-09-17T06:31:57.297Z,1.5
2023-09-17T06:33:05.859Z,1.5
2023-09-17T06:34:14.561Z,1.1
2023-09-17T06:35:24.286Z,1.7
2023-09-17T06:36:33.981Z,0.7
2023-09-17T06:37:43.754Z,1.2
2023-09-17T06:38:53.378Z,0.7
2023-09-17T06:40:03.149Z,1
2023-09-17T06:41:12.804Z,1.3
2023-09-17T06:42:21.479Z,0.7
2023-09-17T06:43:30.203Z,0.9
2023-09-17T06:44:39.949Z,1.3
2023-09-17T06:45:48.785Z,0.5
2023-09-17T06:46:57.573Z,0.5
2023-09-17T06:48:07.180Z,0.7
2023-09-17T06:49:16.938Z,1.3
2023-09-17T06:50:26.643Z,0.6
2023-09-17T06:51:35.420Z,0.6
2023-09-17T06:52:44.190Z,0.8
2023-09-17T06:53:54.259Z,0.4
2023-09-17T06:55:03.636Z,0.8
2023-09-17T06:56:13.315Z,0.6
2023-09-17T06:57:22.015Z,0.4
2023-09-17T06:58:31.822Z,0.8
2023-09-17T06:59:41.424Z,1.3
2023-09-17T07:00:51.141Z,0.2
2023-09-17T07:02:00.929Z,0.4
2023-09-17T07:03:09.638Z,0.2
2023-09-17T07:04:18.393Z,1.3
2023-09-17T07:05:28.129Z,1.2
2023-09-17T07:06:36.778Z,0.9
2023-09-17T07:07:46.487Z,0.7
2023-09-17T07:08:55.234Z,0.3
2023-09-17T07:10:05.024Z,0.7
2023-09-17T07:11:14.650Z,1.1
2023-09-17T07:12:24.365Z,0.7
2023-09-17T07:13:34.033Z,0.4
2023-09-17T07:14:43.739Z,0.5
2023-09-17T07:15:53.420Z,0.5
2023-09-17T07:17:03.157Z,0.3
2023-09-17T07:18:10.757Z,0.9
2023-09-17T07:19:18.401Z,0.3
2023-09-17T07:20:28.114Z,0.2
2023-09-17T07:21:37.788Z,0.4
2023-09-17T07:22:46.489Z,0.3
2023-09-17T07:23:56.120Z,0.5
2023-09-17T07:25:04.789Z,0.4
2023-09-17T07:26:14.560Z,0.3
2023-09-17T07:27:24.201Z,0.2
2023-09-17T07:28:33.892Z,0.5
2023-09-17T07:29:43.559Z,0.2
2023-09-17T07:30:52.259Z,0.6
2023-09-17T07:31:59.959Z,0.4
2023-09-17T07:33:09.684Z,0.2
2023-09-17T07:34:18.363Z,0.2
2023-09-17T07:35:27.047Z,0.3
2023-09-17T07:36:35.747Z,0.7
2023-09-17T07:37:51.263Z,0.2
2023-09-17T07:38:56.129Z,0.5
2023-09-17T07:40:04.806Z,0.7
2023-09-17T07:41:14.528Z,0.2
2023-09-17T07:42:24.241Z,0.4
2023-09-17T07:43:33.919Z,0.2
2023-09-17T07:44:42.653Z,0.2
2023-09-17T07:45:51.323Z,0.1
2023-09-17T07:47:00.113Z,0.2
2023-09-17T07:48:09.786Z,0.2
2023-09-17T07:49:21.355Z,0.3
2023-09-17T07:50:30.022Z,0.3
2023-09-17T07:51:39.747Z,0.3
2023-09-17T07:52:49.573Z,0.3
2023-09-17T07:53:59.253Z,0
2023-09-17T07:55:08.910Z,0.2
2023-09-17T07:56:19.473Z,0.1
2023-09-17T07:57:29.441Z,0.5
2023-09-17T07:58:39.143Z,0.2
2023-09-17T07:59:47.807Z,0.2
2023-09-17T08:00:56.508Z,0.4
2023-09-17T08:02:06.307Z,0.1
2023-09-17T08:03:15.966Z,0.6
2023-09-17T08:04:25.782Z,0.1
2023-09-17T08:05:35.357Z,0.2
2023-09-17T08:06:45.070Z,0.2
2023-09-17T08:07:53.765Z,0.7
2023-09-17T08:09:03.460Z,0.4
2023-09-17T08:10:13.188Z,0.1
2023-09-17T08:11:21.968Z,0
2023-09-17T08:12:30.701Z,0.2
2023-09-17T08:13:39.574Z,0.2
2023-09-17T08:14:48.115Z,0.2
2023-09-17T08:15:58.806Z,0.1
2023-09-17T08:17:07.691Z,0.2
2023-09-17T08:18:17.198Z,0.3
2023-09-17T08:19:26.943Z,0.1
2023-09-17T08:20:37.572Z,0.2
2023-09-17T08:21:46.274Z,0
2023-09-17T08:22:55.036Z,0.1
2023-09-17T08:24:02.724Z,0
2023-09-17T08:25:12.411Z,0.3
2023-09-17T08:26:21.077Z,0.3
2023-09-17T08:27:30.808Z,0.1
2023-09-17T08:28:40.487Z,0.1
2023-09-17T08:29:49.200Z,0.3
2023-09-17T08:30:58.914Z,0.1
2023-09-17T08:32:07.550Z,0.1
2023-09-17T08:33:16.246Z,0.1
2023-09-17T08:34:25.979Z,0.2
2023-09-17T08:35:34.724Z,0.1
2023-09-17T08:36:43.465Z,0
2023-09-17T08:37:53.176Z,0.8
2023-09-17T08:39:01.894Z,0.1
2023-09-17T08:40:10.575Z,0.6
2023-09-17T08:41:20.268Z,0
2023-09-17T08:42:28.938Z,0
2023-09-17T08:43:38.728Z,0.2
2023-09-17T08:44:47.320Z,0.2
2023-09-17T08:45:56.114Z,0.6
2023-09-17T08:47:05.719Z,0.1
2023-09-17T08:48:14.377Z,0.3
2023-09-17T08:49:24.054Z,0.5
2023-09-17T08:50:33.742Z,0
2023-09-17T08:51:42.480Z,0.3
2023-09-17T08:52:52.205Z,0.3
2023-09-17T08:54:01.146Z,0.1
2023-09-17T08:55:10.866Z,0.2
2023-09-17T08:56:20.583Z,0.4
2023-09-17T08:57:30.329Z,0.4
2023-09-17T08:58:40.075Z,0.1
2023-09-17T08:59:49.671Z,0
2023-09-17T09:00:58.381Z,0.2
2023-09-17T09:02:08.130Z,0.1
2023-09-17T09:03:20.229Z,0.1
2023-09-17T09:04:26.423Z,0.4
2023-09-17T09:05:36.104Z,0.1
2023-09-17T09:06:45.856Z,0.1
2023-09-17T09:07:55.583Z,0.1
2023-09-17T09:09:05.243Z,0
2023-09-17T09:10:14.922Z,0.1
2023-09-17T09:11:24.622Z,0.3
2023-09-17T09:12:33.381Z,0.3
2023-09-17T09:13:41.085Z,0.2
2023-09-17T09:14:50.802Z,0.3
2023-09-17T09:16:00.574Z,0.1
2023-09-17T09:17:10.271Z,0.1
2023-09-17T09:18:19.955Z,0.1
2023-09-17T09:19:29.653Z,0.5
2023-09-17T09:20:38.340Z,0.1
2023-09-17T09:21:48.009Z,0.2
2023-09-17T09:22:57.717Z,0
2023-09-17T09:24:07.402Z,0
2023-09-17T09:25:17.180Z,0.3
2023-09-17T09:26:25.867Z,0.9
2023-09-17T09:27:35.547Z,2.3
2023-09-17T09:28:45.350Z,0.3
2023-09-17T09:29:55.052Z,0.2
2023-09-17T09:31:04.741Z,0
2023-09-17T09:32:13.583Z,0.2
2023-09-17T09:33:23.262Z,0.1
2023-09-17T09:34:32.908Z,0.1
2023-09-17T09:35:42.598Z,0.3
2023-09-17T09:36:50.277Z,0.4
2023-09-17T09:37:58.960Z,0
2023-09-17T09:39:08.662Z,0.1
2023-09-17T09:40:17.354Z,0.1
2023-09-17T09:41:26.045Z,0.3
2023-09-17T09:42:35.760Z,0.9
2023-09-17T09:43:43.494Z,0.1
2023-09-17T09:44:53.128Z,0.1
2023-09-17T09:46:02.860Z,0.1
2023-09-17T09:47:11.495Z,0.1
2023-09-17T09:48:21.212Z,0.5
2023-09-17T09:49:30.899Z,0.2
2023-09-17T09:50:41.637Z,0.3
2023-09-17T09:51:51.307Z,0
2023-09-17T09:53:04.127Z,0.2
2023-09-17T09:54:13.808Z,0.1
2023-09-17T09:55:23.565Z,0.1
2023-09-17T09:56:32.261Z,0.4
2023-09-17T09:57:41.933Z,0.3
2023-09-17T09:58:50.683Z,0.1
2023-09-17T10:00:00.387Z,0.6
2023-09-17T10:01:09.155Z,0.1
2023-09-17T10:02:17.848Z,0.2
2023-09-17T10:03:27.550Z,0.1
2023-09-17T10:04:37.334Z,0.1
2023-09-17T10:05:46.221Z,0.2
2023-09-17T10:06:55.905Z,0.4
2023-09-17T10:08:04.631Z,0.1
2023-09-17T10:09:14.316Z,1.7
2023-09-17T10:10:23.987Z,0.6
2023-09-17T10:11:33.750Z,0.1
2023-09-17T10:12:43.436Z,0.2
2023-09-17T10:13:52.276Z,0.1
2023-09-17T10:15:00.910Z,0.1
2023-09-17T10:16:10.625Z,0.3
2023-09-17T10:17:19.327Z,0.1
2023-09-17T10:18:26.999Z,0.2
2023-09-17T10:19:35.803Z,0.1
2023-09-17T10:20:44.486Z,0.1
2023-09-17T10:21:54.199Z,0.1
2023-09-17T10:23:02.947Z,0.1
2023-09-17T10:24:11.612Z,0
2023-09-17T10:25:21.276Z,0.2
2023-09-17T10:26:31.010Z,0.4
2023-09-17T10:27:40.678Z,0.5
2023-09-17T10:28:49.464Z,0.1
2023-09-17T10:29:59.126Z,0.2
2023-09-17T10:31:09.504Z,0.5
2023-09-17T10:32:19.237Z,0.1
2023-09-17T10:33:27.935Z,0.2
2023-09-17T10:34:37.690Z,0.1
2023-09-17T10:35:47.276Z,0.1
2023-09-17T10:36:56.963Z,0.1
2023-09-17T10:38:05.691Z,0.2
2023-09-17T10:39:15.317Z,0.4
2023-09-17T10:40:25.024Z,0.2
2023-09-17T10:41:34.683Z,0.3
2023-09-17T10:42:44.423Z,0.1
2023-09-17T10:43:54.414Z,0.1
2023-09-17T10:45:02.975Z,0.1
2023-09-17T10:46:12.666Z,0.1
2023-09-17T10:47:21.411Z,0.2
2023-09-17T10:48:31.019Z,0.1
2023-09-17T10:49:40.854Z,0.1
2023-09-17T10:50:50.524Z,0.1
2023-09-17T10:52:00.216Z,0.4
2023-09-17T10:53:09.899Z,0.4
2023-09-17T10:54:17.575Z,0
2023-09-17T10:55:26.245Z,0.1
2023-09-17T10:56:34.935Z,0.2
2023-09-17T10:57:43.776Z,0.1
2023-09-17T10:58:53.355Z,0
2023-09-17T11:00:02.217Z,0.1
2023-09-17T11:01:10.816Z,0.2
2023-09-17T11:02:20.719Z,0.1
2023-09-17T11:03:29.444Z,0.1
2023-09-17T11:04:39.048Z,0.1
2023-09-17T11:05:48.819Z,0.1
2023-09-17T11:06:58.491Z,0.1
2023-09-17T11:08:08.286Z,0.2
2023-09-17T11:09:16.939Z,0
2023-09-17T11:10:32.281Z,0.1
2023-09-17T11:11:37.328Z,0.1
2023-09-17T11:12:47.098Z,0.7
2023-09-17T11:13:56.068Z,0
2023-09-17T11:15:05.654Z,0.2
2023-09-17T11:16:14.391Z,0.1
2023-09-17T11:17:24.208Z,0.5
2023-09-17T11:18:35.981Z,0.4
2023-09-17T11:19:42.611Z,0.2
2023-09-17T11:20:52.310Z,0.3
2023-09-17T11:22:01.047Z,0.2
2023-09-17T11:23:10.728Z,0.1
2023-09-17T11:24:19.415Z,0.1
2023-09-17T11:25:27.103Z,0.2
2023-09-17T11:26:36.852Z,0.3
2023-09-17T11:27:46.591Z,0
2023-09-17T11:28:56.278Z,0.8
2023-09-17T11:30:05.994Z,0.1
2023-09-17T11:31:15.708Z,0.1
2023-09-17T11:32:25.422Z,0.1
2023-09-17T11:33:37.905Z,0.1
2023-09-17T11:34:47.608Z,0
2023-09-17T11:35:57.344Z,0.1
2023-09-17T11:37:06.053Z,0.1
2023-09-17T11:38:14.725Z,0.1
2023-09-17T11:39:24.372Z,0.2
2023-09-17T11:40:34.077Z,0.1
2023-09-17T11:41:43.751Z,0.5
2023-09-17T11:42:52.445Z,0
2023-09-17T11:44:02.254Z,0
2023-09-17T11:45:10.907Z,0
2023-09-17T11:46:19.629Z,0.1
2023-09-17T11:47:29.350Z,0
2023-09-17T11:48:37.964Z,0
2023-09-17T11:49:46.672Z,0.2
2023-09-17T11:50:56.429Z,0
2023-09-17T11:52:05.221Z,0.1
2023-09-17T11:53:13.874Z,0.2
2023-09-17T11:54:23.562Z,0.1
2023-09-17T11:55:32.248Z,0.4
2023-09-17T11:56:41.915Z,0.1
2023-09-17T11:57:51.622Z,0
2023-09-17T11:59:01.344Z,0
2023-09-17T12:00:11.026Z,0
2023-09-17T12:01:20.728Z,0
2023-09-17T12:02:29.499Z,0
2023-09-17T12:03:39.115Z,0
2023-09-17T12:04:48.801Z,0.5
2023-09-17T12:05:58.456Z,0.1
2023-09-17T12:07:08.230Z,0
2023-09-17T12:08:16.910Z,0
2023-09-17T12:09:26.534Z,0.1
2023-09-17T12:10:36.240Z,0.1
2023-09-17T12:11:45.914Z,0
2023-09-17T12:12:55.590Z,0
2023-09-17T12:14:05.310Z,0.1
2023-09-17T12:15:15.030Z,0
2023-09-17T12:16:23.743Z,0
2023-09-17T12:17:32.502Z,0
2023-09-17T12:18:43.133Z,0.1
2023-09-17T12:19:52.824Z,0.2
2023-09-17T12:21:01.549Z,0.4
2023-09-17T12:22:10.310Z,0.1
2023-09-17T12:23:18.931Z,0.1
2023-09-17T12:24:28.636Z,0
2023-09-17T12:25:37.413Z,0.1
2023-09-17T12:26:46.178Z,0.9
2023-09-17T12:27:55.902Z,0.6
2023-09-17T12:29:04.578Z,0.2
2023-09-17T12:30:15.237Z,0.2
2023-09-17T12:31:24.920Z,0.1
2023-09-17T12:32:34.636Z,0
2023-09-17T12:33:44.357Z,0
2023-09-17T12:34:53.031Z,0.1
2023-09-17T12:36:00.828Z,0
2023-09-17T12:37:10.513Z,0
2023-09-17T12:38:20.823Z,0.3
2023-09-17T12:39:29.461Z,0.2
2023-09-17T12:40:38.185Z,0.1
2023-09-17T12:41:46.953Z,0
2023-09-17T12:42:57.704Z,0.1
2023-09-17T12:44:05.610Z,0.4
2023-09-17T12:45:14.352Z,0.1
2023-09-17T12:46:24.199Z,0.6
2023-09-17T12:47:33.881Z,0
2023-09-17T12:48:43.620Z,0.1
2023-09-17T12:49:53.334Z,0.4
2023-09-17T12:51:03.030Z,1
2023-09-17T12:52:12.719Z,0.2
2023-09-17T12:53:22.436Z,0.5
2023-09-17T12:54:32.184Z,0.2
2023-09-17T12:55:41.867Z,0
2023-09-17T12:56:50.513Z,0.3
2023-09-17T12:58:00.305Z,0.4
2023-09-17T12:59:09.045Z,0
2023-09-17T13:00:17.676Z,0.5
2023-09-17T13:01:27.443Z,0.6
2023-09-17T13:02:37.214Z,0.1
2023-09-17T13:03:46.006Z,0
2023-09-17T13:04:55.629Z,0
2023-09-17T13:06:04.356Z,0.1
2023-09-17T13:07:13.062Z,0.1
2023-09-17T13:08:22.824Z,0.1
2023-09-17T13:09:32.458Z,0
2023-09-17T13:10:42.326Z,0
2023-09-17T13:11:51.931Z,0.2
2023-09-17T13:13:01.685Z,0
2023-09-17T13:14:11.509Z,0.5
2023-09-17T13:15:21.256Z,0.1
2023-09-17T13:16:30.953Z,0.2
2023-09-17T13:17:39.652Z,0.1
2023-09-17T13:18:48.300Z,0.1
2023-09-17T13:19:58.267Z,0.1
2023-09-17T13:21:06.804Z,0.1
2023-09-17T13:22:16.608Z,0
2023-09-17T13:23:26.278Z,0.1
2023-09-17T13:24:36.006Z,0.4
2023-09-17T13:25:46.020Z,0.1
2023-09-17T13:26:55.720Z,0.3
2023-09-17T13:28:10.955Z,0.3
2023-09-17T13:29:20.639Z,0.5
2023-09-17T13:30:30.462Z,0.1
2023-09-17T13:31:40.417Z,0.2
2023-09-17T13:32:50.176Z,0
2023-09-17T13:33:58.705Z,0.1
2023-09-17T13:35:08.428Z,0.1
2023-09-17T13:36:18.224Z,0
2023-09-17T13:37:27.919Z,0
2023-09-17T13:38:37.650Z,0
2023-09-17T13:39:46.689Z,0
2023-09-17T13:40:56.435Z,0.1
2023-09-17T13:42:06.129Z,0.1
2023-09-17T13:43:14.808Z,0
2023-09-17T13:44:25.483Z,0
2023-09-17T13:45:34.356Z,0
2023-09-17T13:46:44.105Z,0
2023-09-17T13:47:52.885Z,0
2023-09-17T13:49:01.640Z,0.1
2023-09-17T13:50:11.388Z,0
2023-09-17T13:51:21.167Z,0.1
2023-09-17T13:52:30.994Z,0
2023-09-17T13:53:40.719Z,0.1
2023-09-17T13:54:50.441Z,0.2
2023-09-17T13:56:00.261Z,0
2023-09-17T13:57:09.836Z,0.1
2023-09-17T13:58:17.532Z,10.1
2023-09-17T13:59:27.269Z,0.3
2023-09-17T14:00:37.025Z,0.2
2023-09-17T14:01:46.828Z,0.4
2023-09-17T14:02:56.445Z,0
2023-09-17T14:04:06.995Z,0.2
2023-09-17T14:05:15.850Z,0.2
2023-09-17T14:06:24.498Z,0.1
2023-09-17T14:07:33.198Z,0.5
2023-09-17T14:08:42.880Z,0.2
2023-09-17T14:09:52.601Z,0.1
2023-09-17T14:11:00.314Z,0
2023-09-17T14:12:10.030Z,0
2023-09-17T14:13:18.679Z,0.1
2023-09-17T14:14:27.456Z,0.5
2023-09-17T14:15:36.222Z,0.2
2023-09-17T14:16:44.974Z,0.1
2023-09-17T14:17:54.628Z,0.1
2023-09-17T14:19:03.298Z,0.1
2023-09-17T14:20:12.971Z,0.1
2023-09-17T14:21:22.750Z,0
2023-09-17T14:22:32.470Z,0.7
2023-09-17T14:23:42.168Z,0
2023-09-17T14:24:51.846Z,0.5
2023-09-17T14:26:00.581Z,0.1
2023-09-17T14:27:10.270Z,0.5
2023-09-17T14:28:19.991Z,0.2
2023-09-17T14:29:29.660Z,0.3
2023-09-17T14:30:39.361Z,0.1
2023-09-17T14:31:49.460Z,0.4
2023-09-17T14:32:58.311Z,0.4
2023-09-17T14:34:07.816Z,0.1
2023-09-17T14:35:17.536Z,0.1
2023-09-17T14:36:27.209Z,0.2
2023-09-17T14:37:37.007Z,0.1
2023-09-17T14:38:46.669Z,0.1
2023-09-17T14:39:56.367Z,0.3
2023-09-17T14:41:05.047Z,0
2023-09-17T14:42:13.719Z,0
2023-09-17T14:43:23.529Z,0.1
2023-09-17T14:44:31.176Z,0.4
2023-09-17T14:45:40.858Z,0.1
2023-09-17T14:46:49.620Z,0.4
2023-09-17T14:47:58.334Z,0.1
2023-09-17T14:49:07.021Z,0.2
2023-09-17T14:50:16.731Z,0.3
2023-09-17T14:51:26.433Z,0.6
2023-09-17T14:52:36.227Z,0.1
2023-09-17T14:53:43.843Z,0.1
2023-09-17T14:54:54.543Z,0
2023-09-17T14:56:04.288Z,0
2023-09-17T14:57:12.963Z,0.2
2023-09-17T14:58:22.678Z,0.2
2023-09-17T14:59:31.416Z,0.2
2023-09-17T15:00:41.088Z,0.5
2023-09-17T15:01:59.591Z,0.1
2023-09-17T15:02:59.698Z,0.2
2023-09-17T15:04:09.303Z,0.4
2023-09-17T15:05:16.993Z,0
2023-09-17T15:06:24.616Z,0.2
2023-09-17T15:07:34.344Z,0.1
2023-09-17T15:08:43.036Z,0.1
2023-09-17T15:09:51.756Z,0.1
2023-09-17T15:11:00.472Z,0.4
2023-09-17T15:12:09.165Z,0.5
2023-09-17T15:13:18.822Z,0.3
2023-09-17T15:14:27.489Z,0.4
2023-09-17T15:15:36.280Z,0.1
2023-09-17T15:16:45.988Z,0.1
2023-09-17T15:17:56.975Z,0
2023-09-17T15:19:05.645Z,0.3
2023-09-17T15:20:14.413Z,0.6
2023-09-17T15:21:23.028Z,0.7
2023-09-17T15:22:32.710Z,0
2023-09-17T15:23:42.357Z,0.3
2023-09-17T15:24:51.028Z,0.3
2023-09-17T15:26:00.811Z,0.1
2023-09-17T15:27:09.455Z,1.2
2023-09-17T15:28:19.195Z,0.2
2023-09-17T15:29:28.919Z,0.1
2023-09-17T15:30:38.633Z,0.5
2023-09-17T15:31:47.396Z,0.1
2023-09-17T15:32:57.129Z,0.1
2023-09-17T15:34:06.838Z,0.1
2023-09-17T15:35:19.229Z,0.2
2023-09-17T15:36:27.333Z,0
2023-09-17T15:37:36.970Z,0.3
2023-09-17T15:38:46.865Z,0.1
2023-09-17T15:39:56.523Z,0
2023-09-17T15:41:06.310Z,1.2
2023-09-17T15:42:15.935Z,0.5
2023-09-17T15:43:25.657Z,0.1
2023-09-17T15:44:35.315Z,0.2
2023-09-17T15:45:45.028Z,0.3
2023-09-17T15:46:54.782Z,0.2
2023-09-17T15:48:04.458Z,0.1
2023-09-17T15:49:14.142Z,0.1
2023-09-17T15:50:23.860Z,0.3
2023-09-17T15:51:32.589Z,0.3
2023-09-17T15:52:43.299Z,0.5
2023-09-17T15:53:53.060Z,0.3
2023-09-17T15:55:00.756Z,0.7
2023-09-17T15:56:10.485Z,0.2
2023-09-17T15:57:19.173Z,0.7
2023-09-17T15:58:27.909Z,0.1
2023-09-17T15:59:37.605Z,0.3
2023-09-17T16:00:46.281Z,0.1
2023-09-17T16:01:56.217Z,0
2023-09-17T16:03:04.997Z,0.2
2023-09-17T16:04:14.543Z,0.1